Terminal Aerodrome Forecast
Issued by NWS

Home | Current Version | Previous Version | Text Only | Print | Product List | Glossary On
Versions: 1 2 3 4 5 6 7 8 9 10 11 12
000
FTUS43 KILX 301700
TAFBMI
TAF
KBMI 301734Z 3018/3118 25014G20KT P6SM SCT250
     FM310000 21012KT P6SM SCT250
     FM311100 29010KT P6SM SCT250
     FM311400 34010KT P6SM SKC=

USA.gov is the U.S. government's official web portal to all federal, state and local government web resources and services.